createdAt,value
2023-05-20T00:00:36.592Z,26.64
2023-05-20T00:01:36.597Z,26.64
2023-05-20T00:02:36.737Z,26.66
2023-05-20T00:03:36.854Z,26.66
2023-05-20T00:04:36.716Z,26.64
2023-05-20T00:05:36.760Z,26.64
2023-05-20T00:06:36.764Z,26.63
2023-05-20T00:07:36.788Z,26.62
2023-05-20T00:08:36.846Z,26.66
2023-05-20T00:09:36.872Z,26.66
2023-05-20T00:10:36.896Z,26.66
2023-05-20T00:11:36.901Z,26.66
2023-05-20T00:12:36.977Z,26.64
2023-05-20T00:13:36.984Z,26.64
2023-05-20T00:14:37.026Z,26.63
2023-05-20T00:15:37.353Z,26.63
2023-05-20T00:16:37.136Z,26.64
2023-05-20T00:17:37.186Z,26.64
2023-05-20T00:18:37.161Z,26.64
2023-05-20T00:19:37.230Z,26.66
2023-05-20T00:20:37.226Z,26.62
2023-05-20T00:21:37.263Z,26.66
2023-05-20T00:22:37.299Z,26.64
2023-05-20T00:23:37.359Z,26.64
2023-05-20T00:24:37.400Z,26.62
2023-05-20T00:25:37.547Z,26.66
2023-05-20T00:26:37.480Z,26.62
2023-05-20T00:27:37.524Z,26.62
2023-05-20T00:28:37.596Z,26.63
2023-05-20T00:29:37.651Z,26.64
2023-05-20T00:30:37.648Z,26.66
2023-05-20T00:31:37.715Z,26.63
2023-05-20T00:32:37.710Z,26.62
2023-05-20T00:33:37.707Z,26.63
2023-05-20T00:34:37.770Z,26.63
2023-05-20T00:35:37.784Z,26.63
2023-05-20T00:36:37.862Z,26.64
2023-05-20T00:37:37.864Z,26.62
2023-05-20T00:38:37.891Z,26.62
2023-05-20T00:39:37.916Z,26.62
2023-05-20T00:40:37.920Z,26.62
2023-05-20T00:41:37.930Z,26.63
2023-05-20T00:42:38.001Z,26.63
2023-05-20T00:43:37.962Z,26.60
2023-05-20T00:44:38.027Z,26.62
2023-05-20T00:45:38.088Z,26.60
2023-05-20T00:46:38.240Z,26.59
2023-05-20T00:47:38.183Z,26.62
2023-05-20T00:48:38.155Z,26.62
2023-05-20T00:49:38.169Z,26.63
2023-05-20T00:50:38.214Z,26.62
2023-05-20T00:51:38.292Z,26.60
2023-05-20T00:52:38.288Z,26.62
2023-05-20T00:53:38.325Z,26.60
2023-05-20T00:54:38.336Z,26.62
2023-05-20T00:55:38.399Z,26.63
2023-05-20T00:56:38.430Z,26.60
2023-05-20T00:57:38.485Z,26.62
2023-05-20T00:58:38.478Z,26.62
2023-05-20T00:59:38.547Z,26.62
2023-05-20T01:00:38.548Z,26.62
2023-05-20T01:01:38.652Z,26.62
2023-05-20T01:02:38.819Z,26.62
2023-05-20T01:03:38.897Z,26.63
2023-05-20T01:04:38.677Z,26.62
2023-05-20T01:05:40.570Z,26.63
2023-05-20T01:06:38.718Z,26.62
2023-05-20T01:07:38.696Z,26.60
2023-05-20T01:08:38.679Z,26.62
2023-05-20T01:09:38.709Z,26.60
2023-05-20T01:10:38.658Z,26.60
2023-05-20T01:11:38.726Z,26.62
2023-05-20T01:12:38.655Z,26.62
2023-05-20T01:13:38.689Z,26.59
2023-05-20T01:14:38.650Z,26.59
2023-05-20T01:15:38.743Z,26.62
2023-05-20T01:16:38.695Z,26.58
2023-05-20T01:17:38.698Z,26.59
2023-05-20T01:18:38.679Z,26.58
2023-05-20T01:19:38.633Z,26.60
2023-05-20T01:20:38.611Z,26.60
2023-05-20T01:21:38.620Z,26.60
2023-05-20T01:22:38.608Z,26.62
2023-05-20T01:23:38.591Z,26.60
2023-05-20T01:24:38.614Z,26.59
2023-05-20T01:25:38.554Z,26.59
2023-05-20T01:26:38.626Z,26.60
2023-05-20T01:27:38.555Z,26.59
2023-05-20T01:28:38.561Z,26.60
2023-05-20T01:29:38.599Z,26.60
2023-05-20T01:30:38.524Z,26.60
2023-05-20T01:31:38.559Z,26.56
2023-05-20T01:32:38.591Z,26.59
2023-05-20T01:33:38.495Z,26.60
2023-05-20T01:34:39.252Z,26.59
2023-05-20T01:35:38.528Z,26.59
2023-05-20T01:36:38.489Z,26.59
2023-05-20T01:37:38.455Z,26.58
2023-05-20T01:38:38.502Z,26.59
2023-05-20T01:39:38.778Z,26.59
2023-05-20T01:40:38.507Z,26.56
2023-05-20T01:41:38.465Z,26.60
2023-05-20T01:42:38.457Z,26.59
2023-05-20T01:43:38.440Z,26.58
2023-05-20T01:44:38.443Z,26.60
2023-05-20T01:45:38.445Z,26.58
2023-05-20T01:46:38.445Z,26.58
2023-05-20T01:47:38.504Z,26.59
2023-05-20T01:48:38.452Z,26.56
2023-05-20T01:49:38.406Z,26.56
2023-05-20T01:50:38.422Z,26.59
2023-05-20T01:51:38.392Z,26.58
2023-05-20T01:52:38.401Z,26.58
2023-05-20T01:53:38.437Z,26.58
2023-05-20T01:54:38.440Z,26.56
2023-05-20T01:55:38.487Z,26.59
2023-05-20T01:56:38.537Z,26.56
2023-05-20T01:57:38.531Z,26.58
2023-05-20T01:58:38.568Z,26.58
2023-05-20T01:59:38.567Z,26.58
2023-05-20T02:00:38.675Z,26.58
2023-05-20T02:01:38.725Z,26.56
2023-05-20T02:02:38.960Z,26.56
2023-05-20T02:03:38.795Z,26.58
2023-05-20T02:04:38.827Z,26.56
2023-05-20T02:05:39.099Z,26.53
2023-05-20T02:06:38.895Z,26.56
2023-05-20T02:07:38.928Z,26.56
2023-05-20T02:08:38.995Z,26.56
2023-05-20T02:09:39.015Z,26.58
2023-05-20T02:10:39.060Z,26.56
2023-05-20T02:11:39.164Z,26.55
2023-05-20T02:12:39.164Z,26.55
2023-05-20T02:13:39.180Z,26.55
2023-05-20T02:14:39.196Z,26.58
2023-05-20T02:15:39.233Z,26.55
2023-05-20T02:16:39.310Z,26.58
2023-05-20T02:17:39.339Z,26.55
2023-05-20T02:18:39.401Z,26.56
2023-05-20T02:19:39.364Z,26.56
2023-05-20T02:20:39.405Z,26.53
2023-05-20T02:21:39.399Z,26.56
2023-05-20T02:22:39.445Z,26.56
2023-05-20T02:23:39.533Z,26.56
2023-05-20T02:24:39.583Z,26.53
2023-05-20T02:25:39.607Z,26.55
2023-05-20T02:26:39.654Z,26.56
2023-05-20T02:27:39.657Z,26.55
2023-05-20T02:28:39.769Z,26.56
2023-05-20T02:29:39.789Z,26.55
2023-05-20T02:30:39.785Z,26.55
2023-05-20T02:31:39.790Z,26.55
2023-05-20T02:32:39.840Z,26.52
2023-05-20T02:33:40.414Z,26.55
2023-05-20T02:34:39.924Z,26.55
2023-05-20T02:35:39.915Z,26.55
2023-05-20T02:36:39.968Z,26.52
2023-05-20T02:37:40.038Z,26.53
2023-05-20T02:38:40.067Z,26.55
2023-05-20T02:39:40.086Z,26.55
2023-05-20T02:40:40.126Z,26.53
2023-05-20T02:41:40.169Z,26.52
2023-05-20T02:42:40.174Z,26.55
2023-05-20T02:43:40.216Z,26.55
2023-05-20T02:44:40.221Z,26.53
2023-05-20T02:45:40.465Z,26.53
2023-05-20T02:46:40.315Z,26.52
2023-05-20T02:47:40.387Z,26.55
2023-05-20T02:48:40.384Z,26.49
2023-05-20T02:49:40.380Z,26.52
2023-05-20T02:50:40.435Z,26.55
2023-05-20T02:51:40.440Z,26.53
2023-05-20T02:52:40.477Z,26.53
2023-05-20T02:53:40.552Z,26.55
2023-05-20T02:54:40.554Z,26.51
2023-05-20T02:55:40.602Z,26.55
2023-05-20T02:56:40.610Z,26.55
2023-05-20T02:57:40.679Z,26.52
2023-05-20T02:58:40.691Z,26.52
2023-05-20T02:59:40.731Z,26.53
2023-05-20T03:00:41.051Z,26.55
2023-05-20T03:01:40.841Z,26.52
2023-05-20T03:02:40.929Z,26.52
2023-05-20T03:03:40.875Z,26.49
2023-05-20T03:04:40.935Z,26.53
2023-05-20T03:05:40.947Z,26.51
2023-05-20T03:06:40.948Z,26.55
2023-05-20T03:07:41.009Z,26.55
2023-05-20T03:08:41.007Z,26.53
2023-05-20T03:09:41.066Z,26.52
2023-05-20T03:10:41.090Z,26.52
2023-05-20T03:11:41.135Z,26.52
2023-05-20T03:12:41.115Z,26.52
2023-05-20T03:13:41.168Z,26.52
2023-05-20T03:14:41.214Z,26.52
2023-05-20T03:15:41.234Z,26.53
2023-05-20T03:16:41.222Z,26.49
2023-05-20T03:17:41.292Z,26.52
2023-05-20T03:18:41.360Z,26.52
2023-05-20T03:19:41.319Z,26.52
2023-05-20T03:20:41.366Z,26.51
2023-05-20T03:21:41.378Z,26.51
2023-05-20T03:22:42.210Z,26.51
2023-05-20T03:23:41.405Z,26.53
2023-05-20T03:24:41.476Z,26.49
2023-05-20T03:25:41.479Z,26.52
2023-05-20T03:26:41.508Z,26.53
2023-05-20T03:27:41.536Z,26.51
2023-05-20T03:28:41.552Z,26.51
2023-05-20T03:29:41.603Z,26.52
2023-05-20T03:30:41.620Z,26.51
2023-05-20T03:31:41.830Z,26.51
2023-05-20T03:32:41.865Z,26.51
2023-05-20T03:33:41.684Z,26.51
2023-05-20T03:34:41.754Z,26.51
2023-05-20T03:35:41.792Z,26.52
2023-05-20T03:36:41.782Z,26.51
2023-05-20T03:37:41.831Z,26.49
2023-05-20T03:38:41.822Z,26.49
2023-05-20T03:39:41.872Z,26.49
2023-05-20T03:40:41.935Z,26.52
2023-05-20T03:41:41.974Z,26.51
2023-05-20T03:42:41.967Z,26.51
2023-05-20T03:43:42.048Z,26.51
2023-05-20T03:44:42.749Z,26.51
2023-05-20T03:45:42.061Z,26.49
2023-05-20T03:46:42.117Z,26.52
2023-05-20T03:47:42.155Z,26.52
2023-05-20T03:48:42.153Z,26.48
2023-05-20T03:49:42.182Z,26.51
2023-05-20T03:50:42.179Z,26.51
2023-05-20T03:51:42.197Z,26.49
2023-05-20T03:52:42.183Z,26.52
2023-05-20T03:53:42.273Z,26.48
2023-05-20T03:54:42.303Z,26.49
2023-05-20T03:55:42.307Z,26.49
2023-05-20T03:56:42.325Z,26.51
2023-05-20T03:57:42.382Z,26.51
2023-05-20T03:58:42.429Z,26.49
2023-05-20T03:59:42.422Z,26.49
2023-05-20T04:00:42.468Z,26.51
2023-05-20T04:01:42.483Z,26.51
2023-05-20T04:02:42.551Z,26.51
2023-05-20T04:03:42.577Z,26.49
2023-05-20T04:04:42.471Z,26.51
2023-05-20T04:05:42.568Z,26.49
2023-05-20T04:06:42.603Z,26.51
2023-05-20T04:07:42.563Z,26.49
2023-05-20T04:08:42.591Z,26.51
2023-05-20T04:09:42.603Z,26.51
2023-05-20T04:10:42.689Z,26.51
2023-05-20T04:11:42.645Z,26.51
2023-05-20T04:12:42.698Z,26.49
2023-05-20T04:13:42.719Z,26.52
2023-05-20T04:14:42.723Z,26.49
2023-05-20T04:15:42.779Z,26.52
2023-05-20T04:16:42.847Z,26.51
2023-05-20T04:17:42.835Z,26.52
2023-05-20T04:18:42.896Z,26.49
2023-05-20T04:19:42.873Z,26.49
2023-05-20T04:20:42.921Z,26.52
2023-05-20T04:21:42.890Z,26.51
2023-05-20T04:22:42.932Z,26.51
2023-05-20T04:23:42.964Z,26.52
2023-05-20T04:24:43.024Z,26.52
2023-05-20T04:25:42.993Z,26.51
2023-05-20T04:26:43.004Z,26.51
2023-05-20T04:27:43.053Z,26.51
2023-05-20T04:28:43.057Z,26.49
2023-05-20T04:29:43.167Z,26.51
2023-05-20T04:30:43.134Z,26.51
2023-05-20T04:31:43.194Z,26.51
2023-05-20T04:32:43.157Z,26.51
2023-05-20T04:33:43.202Z,26.52
2023-05-20T04:34:43.232Z,26.49
2023-05-20T04:35:43.282Z,26.49
2023-05-20T04:36:43.279Z,26.49
2023-05-20T04:37:43.284Z,26.51
2023-05-20T04:38:43.326Z,26.52
2023-05-20T04:39:43.304Z,26.52
2023-05-20T04:40:43.339Z,26.51
2023-05-20T04:41:43.421Z,26.49
2023-05-20T04:42:43.381Z,26.49
2023-05-20T04:43:43.437Z,26.49
2023-05-20T04:44:43.443Z,26.49
2023-05-20T04:45:43.490Z,26.52
2023-05-20T04:46:43.498Z,26.52
2023-05-20T04:47:43.530Z,26.49
2023-05-20T04:48:43.523Z,26.51
2023-05-20T04:49:43.577Z,26.52
2023-05-20T04:50:43.631Z,26.51
2023-05-20T04:51:43.590Z,26.51
2023-05-20T04:52:43.677Z,26.51
2023-05-20T04:53:45.470Z,26.53
2023-05-20T04:54:43.749Z,26.51
2023-05-20T04:55:43.757Z,26.49
2023-05-20T04:56:43.786Z,26.52
2023-05-20T04:57:43.843Z,26.51
2023-05-20T04:58:43.850Z,26.51
2023-05-20T04:59:44.764Z,26.51
2023-05-20T05:00:43.856Z,26.52
2023-05-20T05:01:43.929Z,26.51
2023-05-20T05:02:43.976Z,26.52
2023-05-20T05:03:43.979Z,26.52
2023-05-20T05:04:44.006Z,26.53
2023-05-20T05:05:44.001Z,26.52
2023-05-20T05:06:43.997Z,26.51
2023-05-20T05:07:44.051Z,26.52
2023-05-20T05:08:44.061Z,26.51
2023-05-20T05:09:44.076Z,26.53
2023-05-20T05:10:44.132Z,26.51
2023-05-20T05:11:44.142Z,26.49
2023-05-20T05:12:44.195Z,26.53
2023-05-20T05:13:44.193Z,26.51
2023-05-20T05:14:44.196Z,26.51
2023-05-20T05:15:44.289Z,26.52
2023-05-20T05:16:44.270Z,26.51
2023-05-20T05:17:44.322Z,26.53
2023-05-20T05:18:44.308Z,26.53
2023-05-20T05:19:44.284Z,26.51
2023-05-20T05:20:44.340Z,26.53
2023-05-20T05:21:44.306Z,26.53
2023-05-20T05:22:44.350Z,26.52
2023-05-20T05:23:44.380Z,26.51
2023-05-20T05:24:44.367Z,26.53
2023-05-20T05:25:44.375Z,26.49
2023-05-20T05:26:44.386Z,26.53
2023-05-20T05:27:44.451Z,26.52
2023-05-20T05:28:44.444Z,26.53
2023-05-20T05:29:44.451Z,26.55
2023-05-20T05:30:44.516Z,26.53
2023-05-20T05:31:44.518Z,26.51
2023-05-20T05:32:44.691Z,26.53
2023-05-20T05:33:44.600Z,26.52
2023-05-20T05:34:44.601Z,26.53
2023-05-20T05:35:45.369Z,26.51
2023-05-20T05:36:44.652Z,26.52
2023-05-20T05:37:44.660Z,26.53
2023-05-20T05:38:44.718Z,26.52
2023-05-20T05:39:45.336Z,26.53
2023-05-20T05:40:44.652Z,26.52
2023-05-20T05:41:44.742Z,26.52
2023-05-20T05:42:44.740Z,26.52
2023-05-20T05:43:44.754Z,26.53
2023-05-20T05:44:44.761Z,26.52
2023-05-20T05:45:44.775Z,26.52
2023-05-20T05:46:44.884Z,26.56
2023-05-20T05:47:44.905Z,26.52
2023-05-20T05:48:44.828Z,26.51
2023-05-20T05:49:44.944Z,26.51
2023-05-20T05:50:44.917Z,26.53
2023-05-20T05:51:44.966Z,26.53
2023-05-20T05:52:44.967Z,26.51
2023-05-20T05:53:44.991Z,26.53
2023-05-20T05:54:44.990Z,26.52
2023-05-20T05:55:44.984Z,26.52
2023-05-20T05:56:45.058Z,26.49
2023-05-20T05:57:45.125Z,26.52
2023-05-20T05:58:45.008Z,26.53
2023-05-20T05:59:45.124Z,26.51
2023-05-20T06:00:45.119Z,26.52
2023-05-20T06:01:45.185Z,26.49
2023-05-20T06:02:45.262Z,26.51
2023-05-20T06:03:45.263Z,26.51
2023-05-20T06:04:45.210Z,26.53
2023-05-20T06:05:45.216Z,26.52
2023-05-20T06:06:45.218Z,26.53
2023-05-20T06:07:45.234Z,26.52
2023-05-20T06:08:45.283Z,26.52
2023-05-20T06:09:45.292Z,26.52
2023-05-20T06:10:45.297Z,26.52
2023-05-20T06:11:45.353Z,26.53
2023-05-20T06:12:45.369Z,26.52
2023-05-20T06:13:45.362Z,26.52
2023-05-20T06:14:45.378Z,26.53
2023-05-20T06:15:45.441Z,26.53
2023-05-20T06:16:45.504Z,26.52
2023-05-20T06:17:45.568Z,26.52
2023-05-20T06:18:45.512Z,26.53
2023-05-20T06:19:45.507Z,26.53
2023-05-20T06:20:45.528Z,26.53
2023-05-20T06:21:45.532Z,26.53
2023-05-20T06:22:45.592Z,26.53
2023-05-20T06:23:45.584Z,26.53
2023-05-20T06:24:45.600Z,26.52
2023-05-20T06:25:45.610Z,26.53
2023-05-20T06:26:45.617Z,26.51
2023-05-20T06:27:45.684Z,26.52
2023-05-20T06:28:45.686Z,26.52
2023-05-20T06:29:45.743Z,26.52
2023-05-20T06:30:45.814Z,26.52
2023-05-20T06:31:45.733Z,26.52
2023-05-20T06:32:45.777Z,26.51
2023-05-20T06:33:45.804Z,26.52
2023-05-20T06:34:45.809Z,26.53
2023-05-20T06:35:45.831Z,26.51
2023-05-20T06:36:45.838Z,26.51
2023-05-20T06:37:45.906Z,26.53
2023-05-20T06:38:46.795Z,26.51
2023-05-20T06:39:45.872Z,26.51
2023-05-20T06:40:45.919Z,26.53
2023-05-20T06:41:45.932Z,26.52
2023-05-20T06:42:45.940Z,26.51
2023-05-20T06:43:45.982Z,26.52
2023-05-20T06:44:46.001Z,26.52
2023-05-20T06:45:45.995Z,26.51
2023-05-20T06:46:46.220Z,26.51
2023-05-20T06:47:46.076Z,26.52
2023-05-20T06:48:46.145Z,26.49
2023-05-20T06:49:47.541Z,26.52
2023-05-20T06:50:46.128Z,26.52
2023-05-20T06:51:46.148Z,26.52
2023-05-20T06:52:46.160Z,26.53
2023-05-20T06:53:46.161Z,26.55
2023-05-20T06:54:46.162Z,26.53
2023-05-20T06:55:46.184Z,26.55
2023-05-20T06:56:46.178Z,26.55
2023-05-20T06:57:46.214Z,26.56
2023-05-20T06:58:46.284Z,26.55
2023-05-20T06:59:46.267Z,26.55
2023-05-20T07:00:46.301Z,26.55
2023-05-20T07:01:46.348Z,26.53
2023-05-20T07:02:46.463Z,26.53
2023-05-20T07:03:46.354Z,26.53
2023-05-20T07:04:46.355Z,26.52
2023-05-20T07:05:46.385Z,26.55
2023-05-20T07:06:46.399Z,26.55
2023-05-20T07:07:46.467Z,26.56
2023-05-20T07:08:46.504Z,26.55
2023-05-20T07:09:47.342Z,26.55
2023-05-20T07:10:46.473Z,26.56
2023-05-20T07:11:47.357Z,26.58
2023-05-20T07:12:46.591Z,26.55
2023-05-20T07:13:46.598Z,26.56
2023-05-20T07:14:46.599Z,26.56
2023-05-20T07:15:46.658Z,26.58
2023-05-20T07:16:47.393Z,26.55
2023-05-20T07:17:46.726Z,26.56
2023-05-20T07:18:46.751Z,26.56
2023-05-20T07:19:47.358Z,26.58
2023-05-20T07:20:46.786Z,26.59
2023-05-20T07:21:46.862Z,26.55
2023-05-20T07:22:46.850Z,26.58
2023-05-20T07:23:46.836Z,26.58
2023-05-20T07:24:47.806Z,26.56
2023-05-20T07:25:46.999Z,26.58
2023-05-20T07:26:46.999Z,26.59
2023-05-20T07:27:46.995Z,26.56
2023-05-20T07:28:47.053Z,26.59
2023-05-20T07:29:47.101Z,26.60
2023-05-20T07:30:47.104Z,26.59
2023-05-20T07:31:47.176Z,26.58
2023-05-20T07:32:47.254Z,26.58
2023-05-20T07:33:47.243Z,26.59
2023-05-20T07:34:47.252Z,26.58
2023-05-20T07:35:47.814Z,26.60
2023-05-20T07:36:47.292Z,26.62
2023-05-20T07:37:47.373Z,26.58
2023-05-20T07:38:56.856Z,26.60
2023-05-20T07:39:48.409Z,26.59
2023-05-20T07:40:47.389Z,26.62
2023-05-20T07:41:47.485Z,26.58
2023-05-20T07:42:47.399Z,26.62
2023-05-20T07:43:47.338Z,26.59
2023-05-20T07:44:47.811Z,26.60
2023-05-20T07:45:47.391Z,26.58
2023-05-20T07:46:47.365Z,26.59
2023-05-20T07:47:47.450Z,26.60
2023-05-20T07:48:47.339Z,26.59
2023-05-20T07:49:47.355Z,26.60
2023-05-20T07:50:47.311Z,26.60
2023-05-20T07:51:47.357Z,26.60
2023-05-20T07:52:56.094Z,26.62
2023-05-20T07:53:48.408Z,26.62
2023-05-20T07:54:48.327Z,26.60
2023-05-20T07:55:47.397Z,26.60
2023-05-20T07:56:47.424Z,26.62
2023-05-20T07:57:47.419Z,26.62
2023-05-20T07:58:47.357Z,26.63
2023-05-20T07:59:47.425Z,26.62
2023-05-20T08:00:47.369Z,26.60
2023-05-20T08:01:47.375Z,26.62
2023-05-20T08:02:47.443Z,26.63
2023-05-20T08:03:47.425Z,26.62
2023-05-20T08:04:48.318Z,26.59
2023-05-20T08:05:47.409Z,26.62
2023-05-20T08:06:47.487Z,26.63
2023-05-20T08:07:47.475Z,26.62
2023-05-20T08:08:47.501Z,26.60
2023-05-20T08:09:47.600Z,26.63
2023-05-20T08:10:47.682Z,26.62
2023-05-20T08:11:47.730Z,26.62
2023-05-20T08:12:47.631Z,26.63
2023-05-20T08:13:47.720Z,26.64
2023-05-20T08:14:47.734Z,26.63
2023-05-20T08:15:47.773Z,26.64
2023-05-20T08:16:47.876Z,26.62
2023-05-20T08:17:47.872Z,26.66
2023-05-20T08:18:47.956Z,26.63
2023-05-20T08:19:47.891Z,26.66
2023-05-20T08:20:47.907Z,26.64
2023-05-20T08:21:47.976Z,26.64
2023-05-20T08:22:47.982Z,26.68
2023-05-20T08:23:47.992Z,26.64
2023-05-20T08:24:48.051Z,26.64
2023-05-20T08:25:48.122Z,26.63
2023-05-20T08:26:48.117Z,26.66
2023-05-20T08:27:48.131Z,26.68
2023-05-20T08:28:48.124Z,26.66
2023-05-20T08:29:48.240Z,26.66
2023-05-20T08:30:48.246Z,26.66
2023-05-20T08:31:48.264Z,26.66
2023-05-20T08:32:48.343Z,26.66
2023-05-20T08:33:48.289Z,26.68
2023-05-20T08:34:48.373Z,26.69
2023-05-20T08:35:48.386Z,26.68
2023-05-20T08:36:48.472Z,26.66
2023-05-20T08:37:48.442Z,26.69
2023-05-20T08:38:48.450Z,26.69
2023-05-20T08:39:48.520Z,26.68
2023-05-20T08:40:48.517Z,26.70
2023-05-20T08:41:48.564Z,26.69
2023-05-20T08:42:48.629Z,26.68
2023-05-20T08:43:49.871Z,26.68
2023-05-20T08:44:48.713Z,26.72
2023-05-20T08:45:48.698Z,26.70
2023-05-20T08:46:48.889Z,26.69
2023-05-20T08:47:48.752Z,26.69
2023-05-20T08:48:48.784Z,26.66
2023-05-20T08:49:48.811Z,26.68
2023-05-20T08:50:48.902Z,26.69
2023-05-20T08:51:48.895Z,26.68
2023-05-20T08:52:48.969Z,26.68
2023-05-20T08:53:49.019Z,26.69
2023-05-20T08:54:49.036Z,26.69
2023-05-20T08:55:49.062Z,26.69
2023-05-20T08:56:49.078Z,26.68
2023-05-20T08:57:49.214Z,26.69
2023-05-20T08:58:49.159Z,26.69
2023-05-20T08:59:49.205Z,26.70
2023-05-20T09:00:49.193Z,26.68
2023-05-20T09:01:49.338Z,26.69
2023-05-20T09:02:49.587Z,26.70
2023-05-20T09:03:49.346Z,26.69
2023-05-20T09:04:49.379Z,26.72
2023-05-20T09:05:49.333Z,26.70
2023-05-20T09:06:49.422Z,26.70
2023-05-20T09:07:49.577Z,26.70
2023-05-20T09:08:49.471Z,26.70
2023-05-20T09:09:49.478Z,26.72
2023-05-20T09:10:49.538Z,26.69
2023-05-20T09:11:49.553Z,26.73
2023-05-20T09:12:50.387Z,26.69
2023-05-20T09:13:49.867Z,26.70
2023-05-20T09:14:49.637Z,26.70
2023-05-20T09:15:49.755Z,26.72
2023-05-20T09:16:49.689Z,26.70
2023-05-20T09:17:49.802Z,26.72
2023-05-20T09:18:49.799Z,26.72
2023-05-20T09:19:49.852Z,26.73
2023-05-20T09:20:49.822Z,26.73
2023-05-20T09:21:50.356Z,26.73
2023-05-20T09:22:49.924Z,26.72
2023-05-20T09:23:49.947Z,26.72
2023-05-20T09:24:49.973Z,26.73
2023-05-20T09:25:49.950Z,26.73
2023-05-20T09:26:49.992Z,26.73
2023-05-20T09:27:50.071Z,26.72
2023-05-20T09:28:50.081Z,26.75
2023-05-20T09:29:50.141Z,26.75
2023-05-20T09:30:50.103Z,26.76
2023-05-20T09:31:50.181Z,26.75
2023-05-20T09:32:50.185Z,26.76
2023-05-20T09:33:50.211Z,26.78
2023-05-20T09:34:50.218Z,26.73
2023-05-20T09:35:50.274Z,26.75
2023-05-20T09:36:50.271Z,26.76
2023-05-20T09:37:50.280Z,26.76
2023-05-20T09:38:50.351Z,26.76
2023-05-20T09:39:50.361Z,26.73
2023-05-20T09:40:50.380Z,26.73
2023-05-20T09:41:50.459Z,26.76
2023-05-20T09:42:50.576Z,26.76
2023-05-20T09:43:50.498Z,26.75
2023-05-20T09:44:50.486Z,26.75
2023-05-20T09:45:50.565Z,26.76
2023-05-20T09:46:50.623Z,26.75
2023-05-20T09:47:50.653Z,26.76
2023-05-20T09:48:50.654Z,26.76
2023-05-20T09:49:50.637Z,26.75
2023-05-20T09:50:50.674Z,26.75
2023-05-20T09:51:50.689Z,26.75
2023-05-20T09:52:50.759Z,26.73
2023-05-20T09:53:50.710Z,26.78
2023-05-20T09:54:50.768Z,26.75
2023-05-20T09:55:50.836Z,26.76
2023-05-20T09:56:50.892Z,26.76
2023-05-20T09:57:50.890Z,26.78
2023-05-20T09:58:50.926Z,26.78
2023-05-20T09:59:51.005Z,26.76
2023-05-20T10:00:50.966Z,26.76
2023-05-20T10:01:51.178Z,26.76
2023-05-20T10:02:51.126Z,26.78
2023-05-20T10:03:51.178Z,26.76
2023-05-20T10:04:51.176Z,26.75
2023-05-20T10:05:51.184Z,26.76
2023-05-20T10:06:51.266Z,26.78
2023-05-20T10:07:51.275Z,26.75
2023-05-20T10:08:51.309Z,26.76
2023-05-20T10:09:51.386Z,26.78
2023-05-20T10:10:51.390Z,26.76
2023-05-20T10:11:51.409Z,26.76
2023-05-20T10:12:51.437Z,26.78
2023-05-20T10:13:51.484Z,26.76
2023-05-20T10:14:51.529Z,26.78
2023-05-20T10:15:51.598Z,26.76
2023-05-20T10:16:51.585Z,26.78
2023-05-20T10:17:51.681Z,26.78
2023-05-20T10:18:51.691Z,26.76
2023-05-20T10:19:52.373Z,26.78
2023-05-20T10:20:51.783Z,26.76
2023-05-20T10:21:51.805Z,26.78
2023-05-20T10:22:52.410Z,26.79
2023-05-20T10:23:52.497Z,26.78
2023-05-20T10:24:51.875Z,26.76
2023-05-20T10:25:51.945Z,26.78
2023-05-20T10:26:52.396Z,26.78
2023-05-20T10:27:51.988Z,26.78
2023-05-20T10:28:51.955Z,26.78
2023-05-20T10:29:52.084Z,26.76
2023-05-20T10:30:52.109Z,26.79
2023-05-20T10:31:52.181Z,26.76
2023-05-20T10:32:52.252Z,26.76
2023-05-20T10:33:52.235Z,26.78
2023-05-20T10:34:52.277Z,26.79
2023-05-20T10:35:52.379Z,26.78
2023-05-20T10:36:52.337Z,26.80
2023-05-20T10:37:52.373Z,26.79
2023-05-20T10:38:52.397Z,26.82
2023-05-20T10:39:52.462Z,26.80
2023-05-20T10:40:52.470Z,26.82
2023-05-20T10:41:52.535Z,26.82
2023-05-20T10:42:52.536Z,26.79
2023-05-20T10:43:52.592Z,26.82
2023-05-20T10:44:52.606Z,26.80
2023-05-20T10:45:52.668Z,26.78
2023-05-20T10:47:52.779Z,26.80
2023-05-20T10:48:52.890Z,26.80
2023-05-20T10:49:52.831Z,26.82
2023-05-20T10:50:52.817Z,26.82
2023-05-20T10:51:52.911Z,26.80
2023-05-20T10:52:52.956Z,26.82
2023-05-20T10:53:52.982Z,26.82
2023-05-20T10:54:53.023Z,26.82
2023-05-20T10:55:53.101Z,26.82
2023-05-20T10:56:53.059Z,26.82
2023-05-20T10:57:53.152Z,26.82
2023-05-20T10:58:53.128Z,26.82
2023-05-20T10:59:53.210Z,26.80
2023-05-20T11:00:53.230Z,26.82
2023-05-20T11:01:53.274Z,26.82
2023-05-20T11:02:53.378Z,26.80
2023-05-20T11:03:53.442Z,26.85
2023-05-20T11:04:53.376Z,26.85
2023-05-20T11:05:53.521Z,26.80
2023-05-20T11:06:53.432Z,26.80
2023-05-20T11:07:53.469Z,26.82
2023-05-20T11:08:53.559Z,26.82
2023-05-20T11:09:53.538Z,26.85
2023-05-20T11:10:53.620Z,26.82
2023-05-20T11:11:53.566Z,26.83
2023-05-20T11:12:53.681Z,26.80
2023-05-20T11:13:53.672Z,26.85
2023-05-20T11:14:53.687Z,26.83
2023-05-20T11:15:53.738Z,26.87
2023-05-20T11:16:53.838Z,26.83
2023-05-20T11:17:53.786Z,26.83
2023-05-20T11:18:53.882Z,26.86
2023-05-20T11:19:53.855Z,26.86
2023-05-20T11:20:53.866Z,26.85
2023-05-20T11:21:54.065Z,26.85
2023-05-20T11:22:53.928Z,26.86
2023-05-20T11:23:53.951Z,26.85
2023-05-20T11:24:53.994Z,26.87
2023-05-20T11:25:54.074Z,26.85
2023-05-20T11:26:54.078Z,26.86
2023-05-20T11:27:54.117Z,26.86
2023-05-20T11:28:54.130Z,26.85
2023-05-20T11:29:54.129Z,26.87
2023-05-20T11:30:54.212Z,26.87
2023-05-20T11:31:54.226Z,26.85
2023-05-20T11:32:54.267Z,26.87
2023-05-20T11:33:54.258Z,26.85
2023-05-20T11:34:54.270Z,26.85
2023-05-20T11:35:54.305Z,26.86
2023-05-20T11:36:54.342Z,26.85
2023-05-20T11:37:54.905Z,26.85
2023-05-20T11:38:54.396Z,26.85
2023-05-20T11:39:55.789Z,26.86
2023-05-20T11:40:54.725Z,26.87
2023-05-20T11:41:54.539Z,26.87
2023-05-20T11:42:54.559Z,26.87
2023-05-20T11:43:54.588Z,26.89
2023-05-20T11:44:54.618Z,26.87
2023-05-20T11:45:54.640Z,26.87
2023-05-20T11:46:54.652Z,26.90
2023-05-20T11:47:54.745Z,26.89
2023-05-20T11:48:54.823Z,26.89
2023-05-20T11:49:54.787Z,26.89
2023-05-20T11:50:54.801Z,26.87
2023-05-20T11:51:54.864Z,26.87
2023-05-20T11:52:54.859Z,26.87
2023-05-20T11:53:54.916Z,26.89
2023-05-20T11:54:54.931Z,26.90
2023-05-20T11:55:54.962Z,26.89
2023-05-20T11:56:54.998Z,26.89
2023-05-20T11:57:55.060Z,26.90
2023-05-20T11:58:55.050Z,26.89
2023-05-20T11:59:55.071Z,26.91
2023-05-20T12:01:02.268Z,26.91
2023-05-20T12:01:56.565Z,26.90
2023-05-20T12:02:55.227Z,26.93
2023-05-20T12:03:55.214Z,26.90
2023-05-20T12:04:56.057Z,26.91
2023-05-20T12:05:55.064Z,26.91
2023-05-20T12:06:55.014Z,26.94
2023-05-20T12:07:56.461Z,26.93
2023-05-20T12:08:55.016Z,26.94
2023-05-20T12:09:55.006Z,26.93
2023-05-20T12:10:55.052Z,26.94
2023-05-20T12:11:55.033Z,26.94
2023-05-20T12:12:55.060Z,26.91
2023-05-20T12:13:55.062Z,26.93
2023-05-20T12:14:55.012Z,26.94
2023-05-20T12:15:55.066Z,26.93
2023-05-20T12:16:55.027Z,26.96
2023-05-20T12:17:55.191Z,26.94
2023-05-20T12:18:55.118Z,26.93
2023-05-20T12:19:55.157Z,26.93
2023-05-20T12:20:55.158Z,26.93
2023-05-20T12:21:55.202Z,26.94
2023-05-20T12:22:55.246Z,26.94
2023-05-20T12:23:55.219Z,26.96
2023-05-20T12:24:55.465Z,26.94
2023-05-20T12:25:55.215Z,26.97
2023-05-20T12:26:55.301Z,26.96
2023-05-20T12:27:55.309Z,26.96
2023-05-20T12:28:55.366Z,26.94
2023-05-20T12:29:55.429Z,26.94
2023-05-20T12:30:55.422Z,26.97
2023-05-20T12:31:55.500Z,26.96
2023-05-20T12:32:55.511Z,26.97
2023-05-20T12:33:55.501Z,26.97
2023-05-20T12:34:55.518Z,26.97
2023-05-20T12:35:55.510Z,26.96
2023-05-20T12:36:55.580Z,26.96
2023-05-20T12:37:55.570Z,26.96
2023-05-20T12:38:55.583Z,26.97
2023-05-20T12:39:55.653Z,26.99
2023-05-20T12:40:55.655Z,26.99
2023-05-20T12:41:55.712Z,26.99
2023-05-20T12:42:55.753Z,26.97
2023-05-20T12:43:55.765Z,26.99
2023-05-20T12:44:55.762Z,27.00
2023-05-20T12:45:55.796Z,27.00
2023-05-20T12:46:55.909Z,27.00
2023-05-20T12:47:55.897Z,26.99
2023-05-20T12:48:55.865Z,26.99
2023-05-20T12:49:55.903Z,27.01
2023-05-20T12:50:55.995Z,26.99
2023-05-20T12:51:55.937Z,27.00
2023-05-20T12:52:56.008Z,27.01
2023-05-20T12:53:56.020Z,27.00